Notice de pointage des heures de vols sur les Robin

Rédigé par Admin - 28 mars 2015


Suite au dernier CD, le Président a envoyé la notice jointe (Pointage HDV)

Concernant le changement du mode de pointage des heures de vols sur les avions Robin. Cette procédure est applicable immédiatement.

Bons vols


Classé dans : Actualités - Mots clés : aucun

A propos de l'auteur:

Pilote et webmaster de ce site.

Écrire un commentaire

Quelle est la première lettre du mot gzzj ? : 



Webcam :

Nuit aéronautique

20 Apr 2018

Heure locale,
pour LFDL uniquement.

Lever du soleil aéronautique :06:32
Lever du soleil :07:02
Coucher du soleil :20:54
Coucher du soleil aéronautique :21:24

Metar

LFBI :
2018/04/20 01:00
LFBI 200100Z AUTO 26001KT CAVOK 13/10 Q1023 NOSIG
LFBI :
Poitiers, France (LFBI) 46-35N 000-19E 120M
Apr 19, 2018 - 09:00 PM EDT / 2018.04.20 0100 UTC
Wind: from the W (260 degrees) at 1 MPH (1 KT):0
Visibility: greater than 7 mile(s):0
Temperature: 55 F (13 C)
Dew Point: 50 F (10 C)
Relative Humidity: 81%
Pressure (altimeter): 30.21 in. Hg (1023 hPa)
ob: LFBI 200100Z AUTO 26001KT CAVOK 13/10 Q1023 NOSIG
cycle: 1

Afficher le metar d'une autre station :
Code OACI :

Aéroclub de Loudun


Bellevue
86200 Loudun


Contacter Michel Richez (président)

  • Mail:michel.richez@free.fr
  • Tel:09-50-38-02-06
  • Mobile:06-52-73-09-01



agrandir le plan

Newsletter

Mon e-mail :